Arnett, OK

12:32 AM CST on March 05, 2015 (GMT -0600)
Gage | Change Station
CLOSE
Current Station
Airport
Location: Gage,
Elevation: 2195 ft
Nearby Weather Stations

Elev 2195 ft 36.30 °N, 99.78 °W | Updated 39 minutes ago

Mostly Cloudy
Mostly Cloudy
20 °F
Feels Like 12 °F
N
6
Wind Variable Wind from West

Today
High -- | Low -- °F
--% Chance of Precip.
Yesterday
High -- | Low -- °F
Precip. -- in
7:04 AM 6:37 PM
Full, 100% visible
Pressure 30.50 in
Visibility 10.0 miles
Clouds Scattered Clouds 11000 ft
Windchill 12 °F
Dew Point 15 °F
Humidity 81%
Rainfall 0.00 in
Snow Depth Not available.
UV 0 out of 12
Pollen .60 out of 12
Air Quality Not available.
Flu Activity Not available.
METAR KGAG 050553Z AUTO 27005KT 10SM SCT110 M07/M09 A3041 RMK AO2 SLP327 T10671094 11033 21067 400111067 50018

More Conditions Fewer Conditions

Pressure 30.50 in
Visibility 10.0 miles
Clouds Scattered Clouds 11000 ft
Windchill 12 °F
Dew Point 15 °F
Humidity 81%
Rainfall 0.00 in
Snow Depth Not available.
UV 0 out of 12
Pollen .60 out of 12
Air Quality Not available.
Flu Activity Not available.
METAR KGAG 050553Z AUTO 27005KT 10SM SCT110 M07/M09 A3041 RMK AO2 SLP327 T10671094 11033 21067 400111067 50018

More Conditions Fewer Conditions

10-Day Weather Forecast

Almanac

Astronomy

Mar. 05, 2015 Rise Set
Actual Time
Civil Twilight
Nautical Twilight
Astronomical Twilight
Moon
Length of Visible Light
Length of Day
Tomorrow will be .
, % of the Moon is Illuminated

Today's Extremes

State Highs State Lows

Community

WunderPhotos

Upload Photos

1,802,689 photos uploaded!

WunderBlogs® & News

Nearby

Air Quality

  Air Quality AQ Index Pollutant
Not available.

Snow Depth

Station Depth Elevation

Earthquake Activity

City Distance Mag. Time & Date
Minimum magnitude displayed is 2.5.

Coastal Water Temperatures

Place Temperature

Nearby Weather Stations